Terminal Aerodrome Forecast
Issued by NWS

Home | Current Version | Previous Version | Text Only | Print | Product List | Glossary On
Versions: 1 2 3 4 5 6 7 8 9 10 11 12 13 14 15 16 17 18 19 20 21
000
FTUS46 KEKA 272347
TAFCEC
TAF
KCEC 272347Z 2800/2824 34010G18KT 6SM HZ SKC
     FM280200 34007KT 6SM BR FEW005
     FM280500 17005KT 4SM BR SCT002
     FM280800 17003KT 1SM BR BKN001
     FM281800 21006KT 4SM BR BKN003
     FM282000 24008KT 6SM HZ SCT008=

USA.gov is the U.S. government's official web portal to all federal, state and local government web resources and services.